Accueil
METAR-TAF:

Aéroports :

Florennes, Belgique

Base aérienne de Florennes

latitude: 50-14N, longitude: 004-39E, altitude: 279 m

Observation

Le bulletin a été fait il y a 49 minutes, à 20:55 UTC
Vent 5 kt de ouest/nord-ouest
Température 17°C
Humidité 72%
Pression 1022 hPa
Visibilité 10 km ou plus

METAR: EBFS 312055Z AUTO 29005KT 9999 NCD 17/12 Q1022 BLU

Heure: 23:44 (21:44 UTC)

Prévision

Le bulletin a été fait il y a 6 heures et 3 minutes, à 15:41 UTC
Prévision valable du 31 à 19 UTC au 01 à 07 UTC
Vent 5 kt de ouest
Visibilité 10 km ou plus
Quelques nuages à une hauteur de 5000 ft
Probabilité 30% :
Temporairement
du 01 à 04 UTC au 01 à 07 UTC
Visibilité: 3000 m
Nuages épars à une hauteur de 200 ft

TAF: EBFS 311541Z 3119/0107 27005KT 9999 FEW050 PROB30 TEMPO 0104/0107 3000 SCT002

METAR-TAF

Observations et prévisions météorologiques de plus de 4000 aéroports (messages METAR et TAF).

Les stations disponibles sont représentées par des disques jaunes et rouges sur la carte.

Passer la souris dessus pour voir le nom de la station.

Cliquer dessus pour voir les observations et prévisions météorologiques.

Pour changer de carte: cliquez sur les boutons verts avec une croix noire pour zoomer, sur le bouton vert avec un tiret pour effectuer un zoom arrière, ou sur les flèches vertes pour les cartes adjacentes.


METAR-TAF: